Time;durP1;ratioP1;P1;durP2;ratioP2;P2;SDS_P1;SDS_P2;PMS_P1;PMS_P2;Temp;Humidity;BMP_temperature;BMP_pressure;BME280_temperature;BME280_humidity;BME280_pressure;Samples;Min_cycle;Max_cycle;Signal;HPM_P1;HPM_P2
2023/03/24 00:00:49;;;;;;;1.67;1.23;;;15.70;69.60;;;;;;5068712;28;20055;-46
2023/03/24 00:03:16;;;;;;;2.38;1.38;;;15.70;69.50;;;;;;5048602;28;20051;-48
2023/03/24 00:05:49;;;;;;;1.38;1.23;;;15.80;69.60;;;;;;5063997;28;20119;-49
2023/03/24 00:08:18;;;;;;;2.17;1.20;;;15.80;69.60;;;;;;5072236;28;20064;-45
2023/03/24 00:10:46;;;;;;;1.42;1.10;;;15.80;69.50;;;;;;5064571;28;20060;-44
2023/03/24 00:13:13;;;;;;;1.48;1.23;;;15.80;69.50;;;;;;5071586;28;20041;-46
2023/03/24 00:15:39;;;;;;;2.33;1.48;;;15.90;69.60;;;;;;5071063;28;20377;-45
2023/03/24 00:18:09;;;;;;;2.38;1.33;;;15.80;69.50;;;;;;5065406;28;20052;-43
2023/03/24 00:20:41;;;;;;;2.17;1.27;;;15.80;69.50;;;;;;5065801;28;20044;-44
2023/03/24 00:23:07;;;;;;;1.10;1.00;;;15.90;69.50;;;;;;5059660;28;20492;-45
2023/03/24 00:25:39;;;;;;;2.05;1.45;;;15.90;69.50;;;;;;5071195;28;20039;-45
2023/03/24 00:28:10;;;;;;;;;;;15.90;69.50;;;;;;5070341;28;20047;-43
2023/03/24 00:30:40;;;;;;;3.30;1.30;;;16.00;69.50;;;;;;5068683;28;21668;-47
2023/03/24 00:33:10;;;;;;;1.48;1.10;;;16.00;69.20;;;;;;5048673;28;20044;-45
2023/03/24 00:35:43;;;;;;;1.10;1.00;;;16.00;69.40;;;;;;5071175;28;20049;-44
2023/03/24 00:38:13;;;;;;;1.45;0.82;;;16.00;69.60;;;;;;5066802;28;20123;-45
2023/03/24 00:40:44;;;;;;;1.23;1.02;;;16.00;69.60;;;;;;5052849;28;20051;-44
2023/03/24 00:43:18;;;;;;;1.38;1.00;;;16.00;69.90;;;;;;5052402;28;20098;-45
2023/03/24 00:45:45;;;;;;;1.30;1.08;;;16.00;69.70;;;;;;5053109;28;20041;-44
2023/03/24 00:48:18;;;;;;;2.25;0.90;;;16.00;69.80;;;;;;5068581;28;20076;-45
2023/03/24 00:50:47;;;;;;;2.20;1.30;;;16.00;70.10;;;;;;5044449;28;20076;-44
2023/03/24 00:53:15;;;;;;;1.50;1.05;;;16.10;70.10;;;;;;5052432;28;20041;-44
2023/03/24 00:55:49;;;;;;;1.25;1.15;;;16.00;70.10;;;;;;5052714;28;20382;-44
2023/03/24 00:58:18;;;;;;;1.60;1.40;;;16.00;70.10;;;;;;5052088;28;20045;-45
2023/03/24 01:00:47;;;;;;;1.70;1.60;;;16.00;70.30;;;;;;5053289;28;20063;-45
2023/03/24 01:03:26;;;;;;;2.30;1.30;;;16.00;70.30;;;;;;5067136;28;20044;-43
2023/03/24 01:05:56;;;;;;;1.75;1.50;;;16.00;70.40;;;;;;5063695;28;20508;-44
2023/03/24 01:08:24;;;;;;;2.25;1.30;;;16.00;70.50;;;;;;5071188;28;20107;-44
2023/03/24 01:10:59;;;;;;;2.63;1.25;;;16.00;70.60;;;;;;5047653;28;20508;-44
2023/03/24 01:13:28;;;;;;;2.55;1.40;;;16.00;70.60;;;;;;5052494;28;20029;-45
2023/03/24 01:15:57;;;;;;;1.50;1.40;;;16.00;70.60;;;;;;5051872;28;20064;-43
2023/03/24 01:18:29;;;;;;;1.30;1.10;;;16.00;70.60;;;;;;5068220;28;20040;-47
2023/03/24 01:20:57;;;;;;;1.35;1.20;;;16.00;70.60;;;;;;5050002;28;20040;-45
2023/03/24 01:23:29;;;;;;;1.67;1.33;;;16.00;70.60;;;;;;5068039;28;20032;-47
2023/03/24 01:25:56;;;;;;;;;;;16.00;70.70;;;;;;5070739;28;20052;-46
2023/03/24 01:28:24;;;;;;;1.48;1.35;;;16.10;70.60;;;;;;5052395;28;20334;-45
2023/03/24 01:30:53;;;;;;;1.58;1.17;;;16.00;70.40;;;;;;5072870;28;20044;-48
2023/03/24 01:33:21;;;;;;;1.73;1.30;;;16.00;70.60;;;;;;5065040;28;20037;-47
2023/03/24 01:35:50;;;;;;;1.58;1.33;;;16.00;70.80;;;;;;5062450;28;20043;-45
2023/03/24 01:38:17;;;;;;;1.13;1.00;;;16.00;70.80;;;;;;5052655;28;20045;-48
2023/03/24 01:40:48;;;;;;;3.40;1.67;;;16.00;70.90;;;;;;5048165;28;20568;-43
2023/03/24 01:43:29;;;;;;;1.80;1.60;;;16.00;71.00;;;;;;5065793;28;20087;-44
2023/03/24 01:46:13;;;;;;;1.45;1.35;;;16.00;71.30;;;;;;5064063;28;20055;-45
2023/03/24 01:48:43;;;;;;;1.38;1.27;;;16.00;71.60;;;;;;5069508;28;20647;-45
2023/03/24 01:51:30;;;;;;;1.65;1.40;;;16.00;71.10;;;;;;5062044;28;20041;-45
2023/03/24 01:54:17;;;;;;;1.75;1.60;;;16.00;72.20;;;;;;5046735;28;20048;-48
2023/03/24 01:57:00;;;;;;;1.83;1.52;;;16.00;71.30;;;;;;5051170;28;20183;-46
2023/03/24 01:59:34;;;;;;;2.20;1.55;;;16.00;71.60;;;;;;5046054;28;20064;-46
2023/03/24 02:02:34;;;;;;;1.92;1.83;;;16.00;71.30;;;;;;5031372;28;20080;-47
2023/03/24 02:05:07;;;;;;;1.50;1.30;;;16.00;71.20;;;;;;5046202;28;20521;-44
2023/03/24 02:08:05;;;;;;;2.70;1.60;;;16.00;72.10;;;;;;5042251;28;20051;-46
2023/03/24 02:10:34;;;;;;;1.45;1.35;;;16.00;71.70;;;;;;5042476;28;20045;-43
2023/03/24 02:13:02;;;;;;;2.00;1.90;;;16.00;71.20;;;;;;5051166;28;20045;-44
2023/03/24 02:15:32;;;;;;;1.98;1.67;;;16.00;71.40;;;;;;5041962;28;20045;-44
2023/03/24 02:18:24;;;;;;;2.15;1.55;;;16.00;71.40;;;;;;5043406;28;20078;-44
2023/03/24 02:21:05;;;;;;;2.13;1.92;;;16.10;71.90;;;;;;5041953;28;20037;-46
2023/03/24 02:23:52;;;;;;;1.88;1.60;;;16.00;71.20;;;;;;5065491;28;20040;-44
2023/03/24 02:26:39;;;;;;;1.65;1.55;;;16.10;71.60;;;;;;5060525;28;20106;-46
2023/03/24 02:29:47;;;;;;;1.75;1.63;;;16.10;71.40;;;;;;5036393;28;20497;-46
2023/03/24 02:32:24;;;;;;;1.67;1.58;;;16.10;71.40;;;;;;5064975;28;20038;-44
2023/03/24 02:35:11;;;;;;;;;;;16.10;71.10;;;;;;5061876;28;20093;-44
2023/03/24 02:37:50;;;;;;;1.43;1.20;;;16.20;71.00;;;;;;5046597;28;19920;-46
2023/03/24 02:40:31;;;;;;;1.83;1.73;;;16.20;70.50;;;;;;5051982;28;20106;-49
2023/03/24 02:43:07;;;;;;;3.58;1.67;;;16.20;70.60;;;;;;5043728;28;20044;-44
2023/03/24 02:45:52;;;;;;;1.67;1.58;;;16.20;70.40;;;;;;5050525;28;20044;-43
2023/03/24 02:48:45;;;;;;;2.97;1.73;;;16.20;70.30;;;;;;5045879;28;20066;-45
2023/03/24 02:51:21;;;;;;;1.90;1.60;;;16.30;70.20;;;;;;5057055;28;20047;-45
2023/03/24 02:54:10;;;;;;;2.03;1.50;;;16.30;70.10;;;;;;5050744;28;20532;-45
2023/03/24 02:56:45;;;;;;;1.35;1.25;;;16.40;69.80;;;;;;5050272;28;20052;-46
2023/03/24 02:59:36;;;;;;;2.05;1.63;;;16.40;69.60;;;;;;5048155;28;20049;-43
2023/03/24 03:02:25;;;;;;;1.73;1.63;;;16.40;69.40;;;;;;5027121;28;20468;-46
2023/03/24 03:05:12;;;;;;;1.98;1.88;;;16.40;69.10;;;;;;5051058;28;20036;-45
2023/03/24 03:07:43;;;;;;;2.38;1.67;;;16.50;69.00;;;;;;5070986;28;20044;-44
2023/03/24 03:10:22;;;;;;;2.10;1.85;;;16.50;69.10;;;;;;5050858;28;20076;-45
2023/03/24 03:12:54;;;;;;;1.70;1.60;;;16.60;68.90;;;;;;5072550;28;20037;-47
2023/03/24 03:15:26;;;;;;;2.05;1.70;;;16.50;68.80;;;;;;5054701;28;20505;-46
2023/03/24 03:18:14;;;;;;;2.83;1.80;;;16.50;68.80;;;;;;5047856;28;20419;-44
2023/03/24 03:20:49;;;;;;;2.17;1.45;;;16.60;68.80;;;;;;5068429;28;20397;-44
2023/03/24 03:23:22;;;;;;;2.00;1.80;;;16.60;68.90;;;;;;5054519;28;20048;-48
2023/03/24 03:25:57;;;;;;;1.88;1.60;;;16.60;68.80;;;;;;5072325;28;20494;-46
2023/03/24 03:28:28;;;;;;;3.35;1.90;;;16.60;68.70;;;;;;5039601;28;20405;-45
2023/03/24 03:31:00;;;;;;;3.43;2.00;;;16.60;68.50;;;;;;5060421;28;20511;-43
2023/03/24 03:33:36;;;;;;;3.13;1.77;;;16.60;68.50;;;;;;5072693;28;20041;-44
2023/03/24 03:36:26;;;;;;;1.98;1.63;;;16.60;68.60;;;;;;5065375;28;20039;-43
2023/03/24 03:38:56;;;;;;;2.13;1.67;;;16.70;69.20;;;;;;5068947;28;20071;-43
2023/03/24 03:41:25;;;;;;;4.10;2.10;;;16.60;69.50;;;;;;5072318;28;20036;-44
2023/03/24 03:43:56;;;;;;;3.20;2.20;;;16.50;69.50;;;;;;5054248;28;20040;-45
2023/03/24 03:46:25;;;;;;;2.25;2.05;;;16.50;70.00;;;;;;5054050;28;20032;-44
2023/03/24 03:48:55;;;;;;;2.42;2.22;;;16.50;70.30;;;;;;5049310;28;20041;-48
2023/03/24 03:51:22;;;;;;;3.38;2.20;;;16.40;70.60;;;;;;5050404;28;20040;-45
2023/03/24 03:54:01;;;;;;;2.75;2.20;;;16.20;70.80;;;;;;5054137;28;20412;-48
2023/03/24 03:56:33;;;;;;;2.78;2.40;;;16.20;71.70;;;;;;5053609;28;20462;-47
2023/03/24 03:59:35;;;;;;;2.70;2.20;;;16.10;71.80;;;;;;5054378;28;20118;-45
2023/03/24 04:02:34;;;;;;;3.20;2.28;;;16.00;72.00;;;;;;5044547;28;20041;-46
2023/03/24 04:05:41;;;;;;;2.47;2.03;;;15.90;72.50;;;;;;5047199;28;20036;-47
2023/03/24 04:08:16;;;;;;;3.50;1.95;;;15.80;73.10;;;;;;5059294;22;20053;31
2023/03/24 04:11:21;;;;;;;2.55;2.35;;;15.80;72.20;;;;;;5030553;28;20049;-48
2023/03/24 04:14:33;;;;;;;2.63;1.83;;;15.70;72.80;;;;;;5021825;28;20050;-46
2023/03/24 04:17:47;;;;;;;2.33;2.13;;;15.60;72.80;;;;;;5008817;28;20053;-45
2023/03/24 04:20:45;;;;;;;1.98;1.48;;;15.60;73.30;;;;;;5007001;28;20061;-48
2023/03/24 04:23:25;;;;;;;3.03;1.80;;;15.50;73.00;;;;;;5004966;28;20093;-45
2023/03/24 04:26:10;;;;;;;1.40;1.30;;;15.50;73.10;;;;;;4993510;28;20046;-48
2023/03/24 04:28:51;;;;;;;2.47;1.45;;;15.40;73.60;;;;;;5009960;28;20092;-48
2023/03/24 04:31:32;;;;;;;1.60;1.20;;;15.40;73.20;;;;;;5009733;28;20046;-46
2023/03/24 04:34:15;;;;;;;1.40;1.20;;;15.40;73.50;;;;;;5004683;28;20117;-47
2023/03/24 04:37:06;;;;;;;1.52;1.40;;;15.30;73.30;;;;;;5008902;28;20081;-47
2023/03/24 04:39:57;;;;;;;2.20;1.50;;;15.30;72.90;;;;;;5008490;28;20046;-45
2023/03/24 04:42:31;;;;;;;2.83;1.38;;;15.20;71.90;;;;;;5006293;28;20596;-48
2023/03/24 04:45:05;;;;;;;1.38;0.70;;;15.10;71.50;;;;;;4993867;28;20054;-49
2023/03/24 04:47:55;;;;;;;1.02;0.85;;;15.10;71.10;;;;;;4998290;28;20181;-47
2023/03/24 04:50:52;;;;;;;2.20;0.90;;;15.00;70.00;;;;;;4992303;28;20042;-48
2023/03/24 04:53:19;;;;;;;3.35;1.00;;;14.90;69.80;;;;;;4992623;28;20061;-46
2023/03/24 04:55:49;;;;;;;1.55;0.60;;;14.80;69.70;;;;;;5010025;28;20463;-48
2023/03/24 04:58:29;;;;;;;2.05;0.93;;;14.70;69.20;;;;;;5010827;28;20046;-49
2023/03/24 05:00:57;;;;;;;1.67;0.90;;;14.60;69.30;;;;;;5008090;28;20040;-45
2023/03/24 05:03:27;;;;;;;1.88;0.88;;;14.50;69.30;;;;;;5007199;28;20402;-44
2023/03/24 05:05:58;;;;;;;2.17;1.02;;;14.40;69.30;;;;;;4991408;28;20560;-43
2023/03/24 05:08:29;;;;;;;2.63;0.52;;;14.40;69.40;;;;;;4990532;28;20053;-49
2023/03/24 05:10:58;;;;;;;0.98;0.60;;;14.30;69.40;;;;;;5005213;28;20061;-47
2023/03/24 05:13:28;;;;;;;2.13;1.48;;;14.20;69.40;;;;;;5009647;28;20053;-47
2023/03/24 05:16:03;;;;;;;2.88;1.00;;;14.10;69.30;;;;;;5001563;28;20073;-47
2023/03/24 05:18:38;;;;;;;4.70;1.05;;;14.10;69.10;;;;;;5006454;28;20046;-46
2023/03/24 05:21:05;;;;;;;1.90;0.90;;;14.00;69.20;;;;;;4987520;28;20046;-48
2023/03/24 05:23:34;;;;;;;2.88;1.23;;;13.90;69.10;;;;;;5003949;28;20517;-48
2023/03/24 05:26:01;;;;;;;3.70;1.20;;;13.90;69.20;;;;;;4983428;28;20042;-47
2023/03/24 05:28:31;;;;;;;4.70;0.80;;;13.90;69.20;;;;;;4994033;28;20053;-49
2023/03/24 05:31:00;;;;;;;3.60;1.10;;;13.80;69.00;;;;;;4993064;28;20104;-48
2023/03/24 05:33:41;;;;;;;5.05;1.25;;;13.70;68.80;;;;;;4989239;28;20054;-48
2023/03/24 05:36:13;;;;;;;4.78;0.93;;;13.70;68.60;;;;;;4985018;28;20045;-49
2023/03/24 05:38:44;;;;;;;1.80;0.90;;;13.70;68.60;;;;;;5005002;28;20053;-46
2023/03/24 05:41:11;;;;;;;2.65;1.10;;;13.60;68.40;;;;;;4989483;28;20042;-46
2023/03/24 05:43:41;;;;;;;2.78;1.38;;;13.50;68.40;;;;;;5002279;28;20038;-44
2023/03/24 05:46:11;;;;;;;7.00;1.48;;;13.50;68.60;;;;;;4998593;28;20046;-47
2023/03/24 05:48:39;;;;;;;6.25;1.33;;;13.50;68.50;;;;;;5001927;28;20580;-50
2023/03/24 05:51:13;;;;;;;7.45;1.55;;;13.50;68.30;;;;;;5004259;28;20030;-48
2023/03/24 05:53:40;;;;;;;4.05;1.23;;;13.50;68.20;;;;;;5005256;28;20134;-47
2023/03/24 05:56:36;;;;;;;3.95;1.13;;;13.50;68.00;;;;;;4989436;28;20531;-50
2023/03/24 05:59:16;;;;;;;2.83;1.48;;;13.50;68.00;;;;;;4986705;28;20046;-49
2023/03/24 06:02:04;;;;;;;6.97;1.40;;;13.50;67.80;;;;;;5002169;28;20118;-50
2023/03/24 06:04:45;;;;;;;4.70;1.67;;;13.50;67.80;;;;;;4988842;28;20754;-48
2023/03/24 06:07:15;;;;;;;5.80;1.30;;;13.50;67.60;;;;;;5009095;28;20042;-47
2023/03/24 06:09:46;;;;;;;4.93;1.30;;;13.50;67.50;;;;;;5009351;28;20672;-44
2023/03/24 06:12:15;;;;;;;3.70;1.45;;;13.50;67.50;;;;;;5000306;28;20157;-47
2023/03/24 06:15:00;;;;;;;4.28;1.42;;;13.50;67.30;;;;;;5008141;28;20046;-46
2023/03/24 06:17:30;;;;;;;4.68;1.17;;;13.50;67.20;;;;;;5009133;28;20060;-48
2023/03/24 06:20:08;;;;;;;4.07;1.70;;;13.50;67.00;;;;;;5006261;28;20041;-46
2023/03/24 06:22:46;;;;;;;3.70;1.48;;;13.50;66.90;;;;;;4984568;28;20054;-45
2023/03/24 06:25:19;;;;;;;6.15;1.63;;;13.50;66.80;;;;;;4994626;28;20056;-47
2023/03/24 06:27:55;;;;;;;4.03;0.77;;;13.40;66.90;;;;;;5004989;28;20522;-47
2023/03/24 06:30:23;;;;;;;6.40;1.55;;;13.40;67.00;;;;;;4987842;28;20120;-44
2023/03/24 06:32:50;;;;;;;3.55;1.20;;;13.40;67.20;;;;;;4989758;28;20058;-47
2023/03/24 06:35:18;;;;;;;5.57;1.20;;;13.40;67.20;;;;;;4990550;28;20046;-45
2023/03/24 06:37:50;;;;;;;2.42;1.38;;;13.40;67.40;;;;;;4999512;28;20515;-47
2023/03/24 06:40:18;;;;;;;3.20;1.20;;;13.40;67.50;;;;;;4998207;28;20048;-45
2023/03/24 06:42:50;;;;;;;3.42;1.48;;;13.50;67.70;;;;;;5004930;28;20042;-46
2023/03/24 06:45:17;;;;;;;4.72;0.82;;;13.40;67.90;;;;;;4989382;28;20041;-47
2023/03/24 06:47:46;;;;;;;2.05;0.90;;;13.50;68.70;;;;;;5001103;28;20121;-47
2023/03/24 06:50:13;;;;;;;3.03;1.48;;;13.50;68.20;;;;;;4964719;28;20396;-48
2023/03/24 06:52:40;;;;;;;4.63;1.30;;;13.50;68.20;;;;;;5005029;28;20518;-45
2023/03/24 06:55:09;;;;;;;4.03;1.70;;;13.50;68.40;;;;;;4965244;28;20049;-44
2023/03/24 06:57:36;;;;;;;3.72;1.55;;;13.50;68.50;;;;;;4998864;28;20062;-48
2023/03/24 07:00:31;;;;;;;2.63;0.93;;;13.50;69.00;;;;;;4982238;28;20772;-46
2023/03/24 07:03:17;;;;;;;6.63;2.08;;;13.60;68.40;;;;;;4998617;28;20077;-45
2023/03/24 07:06:01;;;;;;;5.47;1.73;;;13.60;68.30;;;;;;4990240;28;20076;-47
2023/03/24 07:08:28;;;;;;;6.85;1.20;;;13.60;68.30;;;;;;4990062;28;20084;-46
2023/03/24 07:11:07;;;;;;;4.90;1.63;;;13.60;68.20;;;;;;5001353;28;20580;-45
2023/03/24 07:13:34;;;;;;;5.45;1.45;;;13.60;68.00;;;;;;4989652;28;20042;-49
2023/03/24 07:16:03;;;;;;;4.03;1.73;;;13.60;67.80;;;;;;5007420;28;20486;-44
2023/03/24 07:18:31;;;;;;;5.82;1.90;;;13.70;67.80;;;;;;4990187;28;20061;-45
2023/03/24 07:21:02;;;;;;;5.38;1.75;;;13.70;67.60;;;;;;5001001;28;20395;-44
2023/03/24 07:23:31;;;;;;;7.05;2.17;;;13.70;67.20;;;;;;4997346;28;20140;-46
2023/03/24 07:26:11;;;;;;;8.20;2.05;;;13.70;67.20;;;;;;4990311;28;20045;-46
2023/03/24 07:28:48;;;;;;;4.30;1.70;;;13.80;67.00;;;;;;5005298;28;20696;-46
2023/03/24 07:31:24;;;;;;;5.32;1.98;;;13.80;66.80;;;;;;4998230;28;20133;-47
2023/03/24 07:33:58;;;;;;;6.72;2.42;;;13.80;66.70;;;;;;5005502;28;20103;-48
2023/03/24 07:36:27;;;;;;;5.35;1.70;;;13.80;66.60;;;;;;5005192;28;20092;-49
2023/03/24 07:38:56;;;;;;;8.82;2.20;;;13.80;66.60;;;;;;4987507;28;20533;-46
2023/03/24 07:41:29;;;;;;;6.90;2.63;;;13.90;66.50;;;;;;4985929;28;20041;-45
2023/03/24 07:44:00;;;;;;;5.15;2.15;;;13.90;66.60;;;;;;4989693;28;20129;-44
2023/03/24 07:46:32;;;;;;;7.57;2.13;;;14.00;66.40;;;;;;5006095;28;20505;-45
2023/03/24 07:49:00;;;;;;;6.88;2.67;;;14.00;66.40;;;;;;4981984;28;20038;-44
2023/03/24 07:51:46;;;;;;;7.43;2.35;;;14.10;66.00;;;;;;4998637;28;20042;-50
2023/03/24 07:54:20;;;;;;;10.27;3.13;;;14.10;66.00;;;;;;5001036;28;20042;-49
2023/03/24 07:56:48;;;;;;;3.97;1.95;;;14.20;65.80;;;;;;5006222;28;20058;-44
2023/03/24 07:59:16;;;;;;;10.45;2.75;;;14.20;65.70;;;;;;5007902;28;20465;-49
2023/03/24 08:01:49;;;;;;;6.00;2.53;;;14.20;65.70;;;;;;4998983;28;20049;-46
2023/03/24 08:04:33;;;;;;;7.30;2.67;;;14.20;65.60;;;;;;4993185;28;20041;-45
2023/03/24 08:07:07;;;;;;;6.25;2.10;;;14.30;65.30;;;;;;4994116;28;20512;-49
2023/03/24 08:09:34;;;;;;;4.82;2.40;;;14.30;65.10;;;;;;5009158;28;20125;-46
2023/03/24 08:12:01;;;;;;;12.48;2.97;;;14.30;65.20;;;;;;5008051;28;20413;-46
2023/03/24 08:14:43;;;;;;;10.77;2.67;;;14.30;65.30;;;;;;4992486;28;20104;-45
2023/03/24 08:17:10;;;;;;;4.22;2.10;;;14.30;65.20;;;;;;5007180;28;20041;-46
2023/03/24 08:19:36;;;;;;;7.20;2.60;;;14.30;65.30;;;;;;4992674;28;20057;-46
2023/03/24 08:22:17;;;;;;;7.15;2.35;;;14.30;65.40;;;;;;5002932;28;20850;-47
2023/03/24 08:24:44;;;;;;;4.55;2.00;;;14.30;66.00;;;;;;5002688;28;20061;-45
2023/03/24 08:27:11;;;;;;;6.57;2.22;;;14.30;65.50;;;;;;5011716;28;20521;-46
2023/03/24 08:29:37;;;;;;;5.38;1.90;;;14.30;65.40;;;;;;5006184;28;20046;-45
2023/03/24 08:32:04;;;;;;;6.50;1.90;;;14.30;65.40;;;;;;5001145;28;20050;-45
2023/03/24 08:34:31;;;;;;;4.35;1.60;;;14.40;65.40;;;;;;5010303;28;20048;-46
2023/03/24 08:36:57;;;;;;;7.90;2.83;;;14.40;65.40;;;;;;5003812;28;20054;-45
2023/03/24 08:39:24;;;;;;;6.97;1.67;;;14.40;65.50;;;;;;4997935;28;20038;-43
2023/03/24 08:41:50;;;;;;;5.90;2.50;;;14.40;65.40;;;;;;5010897;28;20046;-46
2023/03/24 08:44:17;;;;;;;8.23;2.30;;;14.50;65.20;;;;;;5009967;28;20045;-46
2023/03/24 08:46:46;;;;;;;4.35;2.05;;;14.50;65.30;;;;;;5001143;28;20038;-46
2023/03/24 08:49:13;;;;;;;6.50;1.50;;;14.60;64.80;;;;;;5003412;28;20038;-45
2023/03/24 08:51:40;;;;;;;5.82;1.90;;;14.60;65.10;;;;;;5009352;28;20417;-45
2023/03/24 08:54:08;;;;;;;5.55;1.60;;;14.60;65.00;;;;;;4998821;28;20105;-46
2023/03/24 08:56:35;;;;;;;9.68;2.47;;;14.70;64.70;;;;;;5009383;28;20048;-47
2023/03/24 08:59:03;;;;;;;6.25;1.65;;;14.70;64.50;;;;;;5006128;28;20691;-45
2023/03/24 09:01:30;;;;;;;7.75;1.73;;;14.70;64.50;;;;;;5007967;28;20038;-46
2023/03/24 09:03:57;;;;;;;8.82;3.83;;;14.80;64.40;;;;;;5008224;28;20871;-44
2023/03/24 09:06:26;;;;;;;5.95;2.13;;;14.80;64.00;;;;;;5005545;28;20031;-47
2023/03/24 09:08:55;;;;;;;9.45;2.78;;;14.90;64.20;;;;;;5000155;28;20042;-46
2023/03/24 09:11:23;;;;;;;10.02;2.25;;;14.90;64.20;;;;;;5004363;28;20050;-45
2023/03/24 09:13:49;;;;;;;8.88;2.13;;;15.00;64.20;;;;;;5009579;28;20049;-48
2023/03/24 09:16:16;;;;;;;10.07;1.98;;;15.10;63.70;;;;;;5003144;28;20046;-46
2023/03/24 09:18:44;;;;;;;3.95;1.60;;;15.10;63.60;;;;;;5006578;28;20037;-48
2023/03/24 09:21:12;;;;;;;4.05;1.27;;;15.20;63.40;;;;;;5005353;28;20516;-45
2023/03/24 09:23:39;;;;;;;5.63;1.98;;;15.30;63.10;;;;;;5010615;28;20046;-46
2023/03/24 09:26:06;;;;;;;6.82;1.73;;;15.40;62.70;;;;;;5009866;28;20042;-46
2023/03/24 09:28:32;;;;;;;5.30;2.00;;;15.40;62.30;;;;;;5005408;28;20042;-48
2023/03/24 09:31:02;;;;;;;6.43;1.60;;;15.50;62.40;;;;;;5003219;28;20069;-48
2023/03/24 09:33:29;;;;;;;5.57;2.17;;;15.60;61.70;;;;;;5010515;28;20076;-46
2023/03/24 09:35:58;;;;;;;8.43;1.73;;;15.70;61.30;;;;;;5000823;28;20050;-50
2023/03/24 09:38:28;;;;;;;7.43;2.00;;;15.70;61.00;;;;;;4996693;28;20582;-50
2023/03/24 09:41:01;;;;;;;7.13;1.77;;;15.80;60.80;;;;;;5002119;28;20099;-45
2023/03/24 09:43:45;;;;;;;3.10;1.63;;;15.80;60.80;;;;;;4979449;28;20038;-47
2023/03/24 09:46:18;;;;;;;7.75;1.80;;;15.80;59.20;;;;;;5001716;28;20038;-48
2023/03/24 09:48:55;;;;;;;8.98;2.42;;;15.90;59.80;;;;;;5005716;28;20042;-49
2023/03/24 09:51:27;;;;;;;4.35;2.20;;;15.90;59.50;;;;;;5001004;28;20049;-46
2023/03/24 09:54:03;;;;;;;7.85;2.08;;;15.90;59.70;;;;;;5009769;28;20562;-47
2023/03/24 09:56:32;;;;;;;5.07;1.77;;;15.90;59.80;;;;;;4998596;28;20074;-47
2023/03/24 09:59:12;;;;;;;10.13;2.55;;;15.90;59.70;;;;;;5006211;28;20053;-49
2023/03/24 10:01:39;;;;;;;7.55;2.45;;;15.90;59.40;;;;;;5010380;28;20045;-48
2023/03/24 10:04:17;;;;;;;7.28;2.05;;;15.90;59.60;;;;;;5006947;28;20034;-49
2023/03/24 10:06:45;;;;;;;10.27;2.05;;;15.90;59.60;;;;;;4996951;28;20042;-46
2023/03/24 10:09:31;;;;;;;6.97;2.00;;;15.90;59.50;;;;;;5003971;28;20034;-48
2023/03/24 10:12:24;;;;;;;6.82;1.75;;;15.90;59.00;;;;;;4999412;28;20052;-49
2023/03/24 10:15:18;;;;;;;7.93;1.83;;;15.90;60.50;;;;;;4999116;28;20042;-50
2023/03/24 10:18:21;;;;;;;5.93;2.35;;;15.90;60.20;;;;;;4973155;28;20062;-49
2023/03/24 10:20:55;;;;;;;6.43;2.05;;;16.00;59.70;;;;;;5002950;28;20056;-48
2023/03/24 10:24:09;;;;;;;4.60;2.30;;;16.10;60.20;;;;;;5008567;28;20038;-47
2023/03/24 10:26:36;;;;;;;4.40;2.13;;;16.20;59.60;;;;;;4998503;28;20491;-46
2023/03/24 10:29:18;;;;;;;5.00;1.77;;;16.20;59.70;;;;;;4989945;28;20407;-46
2023/03/24 10:31:52;;;;;;;9.10;2.88;;;16.30;59.30;;;;;;5006357;28;20121;-48
2023/03/24 10:34:23;;;;;;;4.55;2.10;;;16.40;57.90;;;;;;5001395;28;20046;-47
2023/03/24 10:36:51;;;;;;;6.60;1.83;;;16.50;58.40;;;;;;5001508;28;20053;-50
2023/03/24 10:39:17;;;;;;;4.25;1.95;;;16.50;58.70;;;;;;5003701;28;20575;-49
2023/03/24 10:41:53;;;;;;;7.25;2.17;;;16.60;58.90;;;;;;5006008;28;20069;-47
2023/03/24 10:44:21;;;;;;;5.90;2.10;;;16.70;58.30;;;;;;4997237;28;20042;-47
2023/03/24 10:46:52;;;;;;;9.50;2.42;;;16.80;58.00;;;;;;5005872;28;20066;-49
2023/03/24 10:49:21;;;;;;;6.03;1.75;;;16.80;57.90;;;;;;5000319;28;20052;-47
2023/03/24 10:51:50;;;;;;;8.15;1.45;;;16.80;57.90;;;;;;5003552;28;20041;-50
2023/03/24 10:54:21;;;;;;;6.45;1.85;;;16.80;57.90;;;;;;4989470;28;20038;-47
2023/03/24 10:56:59;;;;;;;5.72;1.55;;;16.80;57.70;;;;;;4998563;28;20038;-50
2023/03/24 10:59:53;;;;;;;5.28;2.13;;;16.80;58.10;;;;;;5007578;28;20065;-48
2023/03/24 11:02:24;;;;;;;3.85;1.58;;;16.90;57.60;;;;;;4997947;28;20466;-48
2023/03/24 11:05:12;;;;;;;5.68;2.08;;;16.90;57.60;;;;;;4997536;28;20057;-47
2023/03/24 11:07:43;;;;;;;3.78;1.70;;;17.00;56.60;;;;;;5001309;28;20048;-50
2023/03/24 11:10:09;;;;;;;3.40;1.48;;;17.00;57.20;;;;;;4999951;28;20137;-46
2023/03/24 11:12:43;;;;;;;3.63;1.88;;;17.10;56.90;;;;;;4999956;28;20050;-49
2023/03/24 11:15:19;;;;;;;6.38;1.77;;;17.10;56.20;;;;;;5002598;28;20445;-49
2023/03/24 11:17:56;;;;;;;7.32;2.55;;;17.10;55.70;;;;;;5003985;28;20544;-48
2023/03/24 11:20:35;;;;;;;5.70;2.03;;;17.10;55.70;;;;;;4998598;28;20048;-47
2023/03/24 11:23:20;;;;;;;3.15;1.48;;;17.10;55.20;;;;;;5005340;28;20041;-49
2023/03/24 11:26:00;;;;;;;2.60;1.98;;;17.10;56.40;;;;;;4999954;28;20078;-50
2023/03/24 11:28:28;;;;;;;6.13;1.85;;;17.10;56.80;;;;;;4998598;28;20455;-49
2023/03/24 11:30:55;;;;;;;5.75;1.75;;;17.10;56.80;;;;;;5003106;28;20046;-46
2023/03/24 11:33:27;;;;;;;3.85;2.15;;;17.20;56.30;;;;;;5004023;28;20038;-50
2023/03/24 11:36:30;;;;;;;3.78;1.55;;;17.20;56.10;;;;;;5011863;28;20045;-48
2023/03/24 11:39:14;;;;;;;5.20;2.05;;;17.30;56.30;;;;;;5003449;28;20085;-50
2023/03/24 11:42:01;;;;;;;5.63;1.58;;;17.40;55.90;;;;;;5007094;28;20506;-50
2023/03/24 11:44:31;;;;;;;5.50;1.65;;;17.50;55.60;;;;;;4991936;28;20031;-50
2023/03/24 11:47:02;;;;;;;4.85;1.70;;;17.60;55.50;;;;;;5000826;28;20672;-50
2023/03/24 11:49:37;;;;;;;5.45;2.28;;;17.70;55.40;;;;;;5009824;28;20050;-47
2023/03/24 11:52:14;;;;;;;2.80;1.50;;;17.70;54.70;;;;;;5006042;28;20046;-51
2023/03/24 11:54:40;;;;;;;2.72;1.80;;;17.80;54.10;;;;;;5006157;28;20037;-47
2023/03/24 11:57:12;;;;;;;5.75;1.27;;;17.80;54.40;;;;;;4999445;28;20042;-48
2023/03/24 11:59:58;;;;;;;5.05;1.40;;;17.90;53.80;;;;;;5007671;28;20050;-47
2023/03/24 12:03:06;;;;;;;3.55;1.65;;;17.90;53.50;;;;;;5005396;28;20407;-46
2023/03/24 12:05:42;;;;;;;4.13;1.77;;;17.90;54.50;;;;;;4999973;28;20632;-50
2023/03/24 12:08:32;;;;;;;5.07;1.83;;;18.00;54.10;;;;;;5004189;28;20530;-50
2023/03/24 12:11:22;;;;;;;9.88;3.42;;;18.00;53.10;;;;;;4989740;28;20055;-48
2023/03/24 12:13:49;;;;;;;5.28;1.45;;;18.00;53.30;;;;;;5011167;28;20221;-47
2023/03/24 12:16:29;;;;;;;4.68;1.90;;;17.90;54.00;;;;;;5002835;28;20128;-49
2023/03/24 12:19:02;;;;;;;5.25;1.58;;;17.90;53.90;;;;;;5009612;28;20557;-47
2023/03/24 12:21:35;;;;;;;5.22;2.25;;;17.90;54.30;;;;;;5000141;28;20069;-49
2023/03/24 12:24:21;;;;;;;6.75;2.15;;;17.90;55.00;;;;;;5010661;28;20045;-49
2023/03/24 12:26:54;;;;;;;3.55;1.67;;;18.00;54.20;;;;;;5006366;28;20053;-50
2023/03/24 12:29:48;;;;;;;7.43;1.52;;;18.10;54.80;;;;;;5009117;28;20487;-50
2023/03/24 12:33:03;;;;;;;4.38;1.38;;;18.20;53.30;;;;;;5008389;28;20046;-47
2023/03/24 12:35:55;;;;;;;5.60;1.77;;;18.20;52.60;;;;;;5003031;28;20054;-46
2023/03/24 12:38:40;;;;;;;5.40;1.30;;;18.20;52.70;;;;;;5001398;28;20034;-49
2023/03/24 12:41:29;;;;;;;3.78;2.47;;;18.10;52.80;;;;;;5001035;28;20081;-47
2023/03/24 12:44:15;;;;;;;10.30;1.27;;;18.10;52.80;;;;;;5001616;28;20044;-47
2023/03/24 12:47:12;;;;;;;4.00;0.75;;;18.10;52.10;;;;;;5004745;28;20042;-46
2023/03/24 12:49:58;;;;;;;4.32;1.13;;;18.00;51.80;;;;;;5001928;28;20574;-48
2023/03/24 12:52:37;;;;;;;4.35;1.00;;;18.00;51.30;;;;;;5004652;28;20038;-47
2023/03/24 12:55:11;;;;;;;4.35;1.17;;;17.90;51.90;;;;;;4984398;28;20117;-50
2023/03/24 12:57:50;;;;;;;4.35;1.52;;;17.80;51.80;;;;;;5002747;28;20568;-49
2023/03/24 13:00:22;;;;;;;5.05;1.00;;;17.80;52.00;;;;;;5002523;28;20042;-45
2023/03/24 13:03:13;;;;;;;2.28;1.10;;;17.70;52.10;;;;;;4999717;28;20688;-50
2023/03/24 13:05:52;;;;;;;1.90;0.80;;;17.60;52.50;;;;;;5000487;28;20042;-49
2023/03/24 13:08:28;;;;;;;6.03;1.35;;;17.70;53.00;;;;;;5002436;28;20517;-48
2023/03/24 13:11:03;;;;;;;2.17;1.00;;;17.80;53.50;;;;;;5000860;28;20429;-51
2023/03/24 13:13:45;;;;;;;4.78;1.25;;;17.80;53.10;;;;;;5000568;28;20068;-47
2023/03/24 13:16:21;;;;;;;4.07;0.90;;;18.00;53.10;;;;;;5002262;28;20049;-47
2023/03/24 13:18:54;;;;;;;4.90;1.05;;;18.10;53.30;;;;;;4996329;28;20053;-45
2023/03/24 13:21:24;;;;;;;3.28;0.75;;;18.20;52.40;;;;;;5003067;28;20053;-51
2023/03/24 13:23:53;;;;;;;1.75;0.90;;;18.30;52.00;;;;;;5000168;28;20037;-48
2023/03/24 13:26:53;;;;;;;2.47;0.70;;;18.40;51.40;;;;;;5001086;28;20724;-47
2023/03/24 13:29:40;;;;;;;3.58;1.23;;;18.40;51.00;;;;;;5004696;28;20053;-50
2023/03/24 13:32:21;;;;;;;3.55;1.20;;;18.50;51.70;;;;;;5000594;28;20039;-48